sensor_id;sensor_type;location;lat;lon;timestamp;P1;durP1;ratioP1;P2;durP2;ratioP2
67902;SDS011;54708;43.612;1.568;2023-02-14T00:02:02;16.63;;;9.60;;
67902;SDS011;54708;43.612;1.568;2023-02-14T00:04:29;10.52;;;9.23;;
67902;SDS011;54708;43.612;1.568;2023-02-14T00:06:54;12.35;;;9.88;;
67902;SDS011;54708;43.612;1.568;2023-02-14T00:09:20;11.80;;;9.40;;
67902;SDS011;54708;43.612;1.568;2023-02-14T00:11:46;17.38;;;11.48;;
67902;SDS011;54708;43.612;1.568;2023-02-14T00:14:11;17.52;;;10.07;;
67902;SDS011;54708;43.612;1.568;2023-02-14T00:16:56;13.52;;;8.93;;
67902;SDS011;54708;43.612;1.568;2023-02-14T00:19:22;16.35;;;11.80;;
67902;SDS011;54708;43.612;1.568;2023-02-14T00:21:47;14.80;;;10.40;;
67902;SDS011;54708;43.612;1.568;2023-02-14T00:24:14;11.43;;;9.55;;
67902;SDS011;54708;43.612;1.568;2023-02-14T00:26:44;17.50;;;10.05;;
67902;SDS011;54708;43.612;1.568;2023-02-14T00:29:10;13.77;;;10.23;;
67902;SDS011;54708;43.612;1.568;2023-02-14T00:31:37;14.75;;;10.52;;
67902;SDS011;54708;43.612;1.568;2023-02-14T00:34:04;15.32;;;11.23;;
67902;SDS011;54708;43.612;1.568;2023-02-14T00:36:29;13.63;;;10.10;;
67902;SDS011;54708;43.612;1.568;2023-02-14T00:38:55;13.35;;;9.70;;
67902;SDS011;54708;43.612;1.568;2023-02-14T00:41:20;12.02;;;10.13;;
67902;SDS011;54708;43.612;1.568;2023-02-14T00:43:47;16.70;;;10.25;;
67902;SDS011;54708;43.612;1.568;2023-02-14T00:46:13;12.80;;;9.73;;
67902;SDS011;54708;43.612;1.568;2023-02-14T00:48:39;13.80;;;9.82;;
67902;SDS011;54708;43.612;1.568;2023-02-14T00:51:05;15.15;;;9.77;;
67902;SDS011;54708;43.612;1.568;2023-02-14T00:53:31;14.77;;;10.35;;
67902;SDS011;54708;43.612;1.568;2023-02-14T00:55:56;12.27;;;9.32;;
67902;SDS011;54708;43.612;1.568;2023-02-14T00:58:22;12.68;;;10.43;;
67902;SDS011;54708;43.612;1.568;2023-02-14T01:00:47;17.25;;;10.43;;
67902;SDS011;54708;43.612;1.568;2023-02-14T01:03:13;13.45;;;10.38;;
67902;SDS011;54708;43.612;1.568;2023-02-14T01:05:38;10.95;;;9.30;;
67902;SDS011;54708;43.612;1.568;2023-02-14T01:08:04;12.48;;;9.57;;
67902;SDS011;54708;43.612;1.568;2023-02-14T01:10:29;14.70;;;11.10;;
67902;SDS011;54708;43.612;1.568;2023-02-14T01:12:55;15.80;;;9.10;;
67902;SDS011;54708;43.612;1.568;2023-02-14T01:15:20;16.30;;;10.60;;
67902;SDS011;54708;43.612;1.568;2023-02-14T01:17:46;14.10;;;9.68;;
67902;SDS011;54708;43.612;1.568;2023-02-14T01:20:11;11.25;;;9.25;;
67902;SDS011;54708;43.612;1.568;2023-02-14T01:22:36;12.48;;;8.70;;
67902;SDS011;54708;43.612;1.568;2023-02-14T01:25:02;13.18;;;8.65;;
67902;SDS011;54708;43.612;1.568;2023-02-14T01:27:28;11.95;;;9.90;;
67902;SDS011;54708;43.612;1.568;2023-02-14T01:29:54;14.80;;;9.43;;
67902;SDS011;54708;43.612;1.568;2023-02-14T01:32:19;11.45;;;8.57;;
67902;SDS011;54708;43.612;1.568;2023-02-14T01:34:45;15.00;;;9.93;;
67902;SDS011;54708;43.612;1.568;2023-02-14T01:37:12;10.57;;;9.30;;
67902;SDS011;54708;43.612;1.568;2023-02-14T01:39:37;12.65;;;10.10;;
67902;SDS011;54708;43.612;1.568;2023-02-14T01:42:03;14.02;;;9.95;;
67902;SDS011;54708;43.612;1.568;2023-02-14T01:46:57;13.38;;;10.55;;
67902;SDS011;54708;43.612;1.568;2023-02-14T01:49:28;11.60;;;9.57;;
67902;SDS011;54708;43.612;1.568;2023-02-14T01:54:26;11.93;;;9.57;;
67902;SDS011;54708;43.612;1.568;2023-02-14T01:56:54;13.98;;;9.18;;
67902;SDS011;54708;43.612;1.568;2023-02-14T01:59:22;11.25;;;8.90;;
67902;SDS011;54708;43.612;1.568;2023-02-14T02:01:51;11.45;;;9.90;;
67902;SDS011;54708;43.612;1.568;2023-02-14T02:04:25;11.63;;;9.98;;
67902;SDS011;54708;43.612;1.568;2023-02-14T02:07:13;11.93;;;8.38;;
67902;SDS011;54708;43.612;1.568;2023-02-14T02:09:43;13.13;;;8.90;;
67902;SDS011;54708;43.612;1.568;2023-02-14T02:12:11;10.63;;;9.10;;
67902;SDS011;54708;43.612;1.568;2023-02-14T02:14:37;9.77;;;8.43;;
67902;SDS011;54708;43.612;1.568;2023-02-14T02:17:10;12.85;;;9.07;;
67902;SDS011;54708;43.612;1.568;2023-02-14T02:48:04;11.02;;;8.02;;
67902;SDS011;54708;43.612;1.568;2023-02-14T02:53:51;10.10;;;6.75;;
67902;SDS011;54708;43.612;1.568;2023-02-14T02:56:21;9.68;;;6.85;;
67902;SDS011;54708;43.612;1.568;2023-02-14T02:59:10;10.20;;;7.63;;
67902;SDS011;54708;43.612;1.568;2023-02-14T03:01:42;8.60;;;7.50;;
67902;SDS011;54708;43.612;1.568;2023-02-14T03:04:11;8.70;;;6.78;;
67902;SDS011;54708;43.612;1.568;2023-02-14T03:06:55;10.20;;;7.10;;
67902;SDS011;54708;43.612;1.568;2023-02-14T03:11:56;8.45;;;6.20;;
67902;SDS011;54708;43.612;1.568;2023-02-14T03:14:31;18.10;;;8.07;;
67902;SDS011;54708;43.612;1.568;2023-02-14T03:19:55;10.23;;;7.00;;
67902;SDS011;54708;43.612;1.568;2023-02-14T03:23:08;9.43;;;7.03;;
67902;SDS011;54708;43.612;1.568;2023-02-14T03:25:44;11.00;;;6.95;;
67902;SDS011;54708;43.612;1.568;2023-02-14T03:28:16;7.40;;;6.53;;
67902;SDS011;54708;43.612;1.568;2023-02-14T03:33:39;11.80;;;7.15;;
67902;SDS011;54708;43.612;1.568;2023-02-14T03:36:13;9.70;;;7.57;;
67902;SDS011;54708;43.612;1.568;2023-02-14T03:38:54;7.97;;;7.00;;
67902;SDS011;54708;43.612;1.568;2023-02-14T03:41:23;10.05;;;6.93;;
67902;SDS011;54708;43.612;1.568;2023-02-14T03:43:53;10.15;;;7.13;;
67902;SDS011;54708;43.612;1.568;2023-02-14T03:46:27;10.48;;;7.72;;
67902;SDS011;54708;43.612;1.568;2023-02-14T03:48:55;7.70;;;6.90;;
67902;SDS011;54708;43.612;1.568;2023-02-14T03:51:23;9.30;;;7.05;;
67902;SDS011;54708;43.612;1.568;2023-02-14T03:53:50;9.43;;;7.60;;
67902;SDS011;54708;43.612;1.568;2023-02-14T03:59:10;10.50;;;7.20;;
67902;SDS011;54708;43.612;1.568;2023-02-14T04:01:41;8.38;;;7.38;;
67902;SDS011;54708;43.612;1.568;2023-02-14T04:04:17;12.45;;;8.95;;
67902;SDS011;54708;43.612;1.568;2023-02-14T04:06:44;11.07;;;8.02;;
67902;SDS011;54708;43.612;1.568;2023-02-14T04:09:09;9.65;;;7.38;;
67902;SDS011;54708;43.612;1.568;2023-02-14T04:11:35;10.00;;;7.28;;
67902;SDS011;54708;43.612;1.568;2023-02-14T04:14:02;10.95;;;8.25;;
67902;SDS011;54708;43.612;1.568;2023-02-14T04:16:28;12.82;;;7.32;;
67902;SDS011;54708;43.612;1.568;2023-02-14T04:18:54;9.43;;;7.07;;
67902;SDS011;54708;43.612;1.568;2023-02-14T04:21:38;11.95;;;7.45;;
67902;SDS011;54708;43.612;1.568;2023-02-14T04:24:04;9.35;;;7.85;;
67902;SDS011;54708;43.612;1.568;2023-02-14T04:26:29;9.40;;;7.65;;
67902;SDS011;54708;43.612;1.568;2023-02-14T04:28:55;9.95;;;7.63;;
67902;SDS011;54708;43.612;1.568;2023-02-14T04:31:20;10.10;;;8.10;;
67902;SDS011;54708;43.612;1.568;2023-02-14T04:33:45;10.15;;;7.55;;
67902;SDS011;54708;43.612;1.568;2023-02-14T04:36:12;12.48;;;8.45;;
67902;SDS011;54708;43.612;1.568;2023-02-14T04:38:38;9.27;;;7.65;;
67902;SDS011;54708;43.612;1.568;2023-02-14T04:41:04;11.13;;;8.77;;
67902;SDS011;54708;43.612;1.568;2023-02-14T04:43:29;10.95;;;7.70;;
67902;SDS011;54708;43.612;1.568;2023-02-14T04:45:54;8.23;;;7.40;;
67902;SDS011;54708;43.612;1.568;2023-02-14T04:48:20;11.73;;;8.40;;
67902;SDS011;54708;43.612;1.568;2023-02-14T04:50:49;14.70;;;8.05;;
67902;SDS011;54708;43.612;1.568;2023-02-14T04:53:16;9.88;;;7.70;;
67902;SDS011;54708;43.612;1.568;2023-02-14T04:55:43;11.18;;;8.70;;
67902;SDS011;54708;43.612;1.568;2023-02-14T04:58:09;10.18;;;8.10;;
67902;SDS011;54708;43.612;1.568;2023-02-14T05:00:34;14.20;;;8.25;;
67902;SDS011;54708;43.612;1.568;2023-02-14T05:03:00;12.63;;;8.32;;
67902;SDS011;54708;43.612;1.568;2023-02-14T05:05:25;13.75;;;8.18;;
67902;SDS011;54708;43.612;1.568;2023-02-14T05:07:52;11.02;;;7.68;;
67902;SDS011;54708;43.612;1.568;2023-02-14T05:10:17;8.98;;;7.53;;
67902;SDS011;54708;43.612;1.568;2023-02-14T05:12:42;8.65;;;7.45;;
67902;SDS011;54708;43.612;1.568;2023-02-14T05:15:08;11.23;;;7.47;;
67902;SDS011;54708;43.612;1.568;2023-02-14T05:17:34;10.73;;;6.85;;
67902;SDS011;54708;43.612;1.568;2023-02-14T05:20:00;9.52;;;7.40;;
67902;SDS011;54708;43.612;1.568;2023-02-14T05:22:25;11.23;;;6.90;;
67902;SDS011;54708;43.612;1.568;2023-02-14T05:24:50;9.95;;;6.78;;
67902;SDS011;54708;43.612;1.568;2023-02-14T05:27:16;8.48;;;6.55;;
67902;SDS011;54708;43.612;1.568;2023-02-14T05:29:41;10.98;;;6.88;;
67902;SDS011;54708;43.612;1.568;2023-02-14T05:32:07;9.07;;;7.05;;
67902;SDS011;54708;43.612;1.568;2023-02-14T05:34:32;10.05;;;6.95;;
67902;SDS011;54708;43.612;1.568;2023-02-14T05:36:58;21.80;;;7.25;;
67902;SDS011;54708;43.612;1.568;2023-02-14T05:39:23;9.20;;;6.45;;
67902;SDS011;54708;43.612;1.568;2023-02-14T05:41:49;9.70;;;6.20;;
67902;SDS011;54708;43.612;1.568;2023-02-14T05:44:14;9.18;;;7.22;;
67902;SDS011;54708;43.612;1.568;2023-02-14T05:46:39;11.43;;;6.50;;
67902;SDS011;54708;43.612;1.568;2023-02-14T05:49:05;9.40;;;6.65;;
67902;SDS011;54708;43.612;1.568;2023-02-14T05:51:30;7.95;;;6.40;;
67902;SDS011;54708;43.612;1.568;2023-02-14T05:53:56;10.63;;;7.82;;
67902;SDS011;54708;43.612;1.568;2023-02-14T05:56:23;13.75;;;6.75;;
67902;SDS011;54708;43.612;1.568;2023-02-14T05:58:49;7.78;;;6.40;;
67902;SDS011;54708;43.612;1.568;2023-02-14T06:01:14;12.20;;;7.60;;
67902;SDS011;54708;43.612;1.568;2023-02-14T06:03:40;9.68;;;6.88;;
67902;SDS011;54708;43.612;1.568;2023-02-14T06:06:05;9.20;;;6.28;;
67902;SDS011;54708;43.612;1.568;2023-02-14T06:08:31;10.10;;;7.25;;
67902;SDS011;54708;43.612;1.568;2023-02-14T06:10:56;11.57;;;6.88;;
67902;SDS011;54708;43.612;1.568;2023-02-14T06:13:21;13.48;;;8.63;;
67902;SDS011;54708;43.612;1.568;2023-02-14T06:15:48;12.57;;;8.30;;
67902;SDS011;54708;43.612;1.568;2023-02-14T06:18:14;12.63;;;9.13;;
67902;SDS011;54708;43.612;1.568;2023-02-14T06:20:39;13.82;;;9.05;;
67902;SDS011;54708;43.612;1.568;2023-02-14T06:23:05;14.20;;;9.35;;
67902;SDS011;54708;43.612;1.568;2023-02-14T06:25:30;13.38;;;9.68;;
67902;SDS011;54708;43.612;1.568;2023-02-14T06:27:56;14.07;;;9.27;;
67902;SDS011;54708;43.612;1.568;2023-02-14T06:30:22;10.23;;;7.80;;
67902;SDS011;54708;43.612;1.568;2023-02-14T06:32:48;11.70;;;7.93;;
67902;SDS011;54708;43.612;1.568;2023-02-14T06:35:13;11.63;;;9.45;;
67902;SDS011;54708;43.612;1.568;2023-02-14T06:37:39;12.27;;;9.55;;
67902;SDS011;54708;43.612;1.568;2023-02-14T06:40:06;13.75;;;9.75;;
67902;SDS011;54708;43.612;1.568;2023-02-14T06:42:32;15.90;;;10.10;;
67902;SDS011;54708;43.612;1.568;2023-02-14T06:44:58;14.02;;;9.38;;
67902;SDS011;54708;43.612;1.568;2023-02-14T06:47:23;14.27;;;9.75;;
67902;SDS011;54708;43.612;1.568;2023-02-14T06:49:49;12.52;;;8.95;;
67902;SDS011;54708;43.612;1.568;2023-02-14T06:52:14;15.27;;;9.90;;
67902;SDS011;54708;43.612;1.568;2023-02-14T06:54:53;14.35;;;9.35;;
67902;SDS011;54708;43.612;1.568;2023-02-14T06:57:20;12.02;;;8.38;;
67902;SDS011;54708;43.612;1.568;2023-02-14T06:59:45;13.45;;;9.27;;
67902;SDS011;54708;43.612;1.568;2023-02-14T07:02:11;11.57;;;8.80;;
67902;SDS011;54708;43.612;1.568;2023-02-14T07:04:36;13.38;;;10.48;;
67902;SDS011;54708;43.612;1.568;2023-02-14T07:07:02;15.55;;;10.10;;
67902;SDS011;54708;43.612;1.568;2023-02-14T07:09:28;13.15;;;9.32;;
67902;SDS011;54708;43.612;1.568;2023-02-14T07:11:54;14.80;;;8.80;;
67902;SDS011;54708;43.612;1.568;2023-02-14T07:14:19;15.20;;;9.25;;
67902;SDS011;54708;43.612;1.568;2023-02-14T07:16:46;11.80;;;9.02;;
67902;SDS011;54708;43.612;1.568;2023-02-14T07:19:12;21.20;;;9.65;;
67902;SDS011;54708;43.612;1.568;2023-02-14T07:21:38;13.57;;;8.82;;
67902;SDS011;54708;43.612;1.568;2023-02-14T07:24:04;14.30;;;9.85;;
67902;SDS011;54708;43.612;1.568;2023-02-14T07:26:29;14.18;;;9.63;;
67902;SDS011;54708;43.612;1.568;2023-02-14T07:28:55;13.82;;;9.38;;
67902;SDS011;54708;43.612;1.568;2023-02-14T07:31:21;13.23;;;8.35;;
67902;SDS011;54708;43.612;1.568;2023-02-14T07:33:48;15.75;;;9.23;;
67902;SDS011;54708;43.612;1.568;2023-02-14T07:36:14;15.63;;;9.60;;
67902;SDS011;54708;43.612;1.568;2023-02-14T07:38:40;11.20;;;8.63;;
67902;SDS011;54708;43.612;1.568;2023-02-14T07:41:05;16.77;;;10.10;;
67902;SDS011;54708;43.612;1.568;2023-02-14T07:43:31;12.23;;;9.00;;
67902;SDS011;54708;43.612;1.568;2023-02-14T07:45:58;16.33;;;10.35;;
67902;SDS011;54708;43.612;1.568;2023-02-14T07:48:25;15.70;;;9.52;;
67902;SDS011;54708;43.612;1.568;2023-02-14T07:50:51;14.73;;;8.75;;
67902;SDS011;54708;43.612;1.568;2023-02-14T07:53:22;12.95;;;8.57;;
67902;SDS011;54708;43.612;1.568;2023-02-14T07:55:51;16.83;;;9.45;;
67902;SDS011;54708;43.612;1.568;2023-02-14T07:58:18;12.63;;;8.25;;
67902;SDS011;54708;43.612;1.568;2023-02-14T08:00:44;11.00;;;7.88;;
67902;SDS011;54708;43.612;1.568;2023-02-14T08:03:10;14.25;;;8.65;;
67902;SDS011;54708;43.612;1.568;2023-02-14T08:05:41;13.68;;;9.07;;
67902;SDS011;54708;43.612;1.568;2023-02-14T08:08:21;11.75;;;7.95;;
67902;SDS011;54708;43.612;1.568;2023-02-14T08:10:55;12.55;;;8.35;;
67902;SDS011;54708;43.612;1.568;2023-02-14T08:13:22;11.60;;;8.68;;
67902;SDS011;54708;43.612;1.568;2023-02-14T08:15:49;11.98;;;7.80;;
67902;SDS011;54708;43.612;1.568;2023-02-14T08:18:45;10.75;;;7.63;;
67902;SDS011;54708;43.612;1.568;2023-02-14T08:21:11;11.50;;;9.18;;
67902;SDS011;54708;43.612;1.568;2023-02-14T08:23:36;12.98;;;7.78;;
67902;SDS011;54708;43.612;1.568;2023-02-14T08:26:03;12.63;;;7.55;;
67902;SDS011;54708;43.612;1.568;2023-02-14T08:28:30;12.77;;;6.65;;
67902;SDS011;54708;43.612;1.568;2023-02-14T08:30:57;12.38;;;6.65;;
67902;SDS011;54708;43.612;1.568;2023-02-14T08:33:24;9.18;;;6.50;;
67902;SDS011;54708;43.612;1.568;2023-02-14T08:35:51;9.52;;;6.85;;
67902;SDS011;54708;43.612;1.568;2023-02-14T08:38:17;10.23;;;6.88;;
67902;SDS011;54708;43.612;1.568;2023-02-14T08:40:43;13.70;;;7.53;;
67902;SDS011;54708;43.612;1.568;2023-02-14T08:43:09;12.85;;;6.15;;
67902;SDS011;54708;43.612;1.568;2023-02-14T08:45:37;10.13;;;7.57;;
67902;SDS011;54708;43.612;1.568;2023-02-14T08:48:08;11.80;;;7.90;;
67902;SDS011;54708;43.612;1.568;2023-02-14T08:50:35;10.35;;;7.35;;
67902;SDS011;54708;43.612;1.568;2023-02-14T08:53:07;7.32;;;6.28;;
67902;SDS011;54708;43.612;1.568;2023-02-14T08:55:35;9.07;;;6.95;;
67902;SDS011;54708;43.612;1.568;2023-02-14T08:58:02;10.35;;;6.78;;
67902;SDS011;54708;43.612;1.568;2023-02-14T09:00:29;11.30;;;8.73;;
67902;SDS011;54708;43.612;1.568;2023-02-14T09:02:56;11.23;;;7.50;;
67902;SDS011;54708;43.612;1.568;2023-02-14T09:05:29;11.82;;;8.57;;
67902;SDS011;54708;43.612;1.568;2023-02-14T09:07:56;9.13;;;7.22;;
67902;SDS011;54708;43.612;1.568;2023-02-14T09:10:23;9.15;;;8.25;;
67902;SDS011;54708;43.612;1.568;2023-02-14T09:12:50;9.77;;;6.95;;
67902;SDS011;54708;43.612;1.568;2023-02-14T09:15:28;10.50;;;7.55;;
67902;SDS011;54708;43.612;1.568;2023-02-14T09:17:54;9.23;;;6.72;;
67902;SDS011;54708;43.612;1.568;2023-02-14T09:20:20;11.02;;;7.03;;
67902;SDS011;54708;43.612;1.568;2023-02-14T09:22:46;10.73;;;7.32;;
67902;SDS011;54708;43.612;1.568;2023-02-14T09:25:13;9.23;;;6.63;;
67902;SDS011;54708;43.612;1.568;2023-02-14T09:27:39;11.88;;;7.18;;
67902;SDS011;54708;43.612;1.568;2023-02-14T09:30:08;9.65;;;7.43;;
67902;SDS011;54708;43.612;1.568;2023-02-14T09:32:45;12.30;;;7.13;;
67902;SDS011;54708;43.612;1.568;2023-02-14T09:35:16;10.48;;;7.75;;
67902;SDS011;54708;43.612;1.568;2023-02-14T09:38:00;11.80;;;7.75;;
67902;SDS011;54708;43.612;1.568;2023-02-14T09:40:42;8.95;;;6.53;;
67902;SDS011;54708;43.612;1.568;2023-02-14T09:51:06;22.73;;;6.82;;
67902;SDS011;54708;43.612;1.568;2023-02-14T09:53:37;8.85;;;6.30;;
67902;SDS011;54708;43.612;1.568;2023-02-14T09:56:21;12.32;;;7.20;;
67902;SDS011;54708;43.612;1.568;2023-02-14T09:59:01;9.32;;;7.30;;
67902;SDS011;54708;43.612;1.568;2023-02-14T10:06:57;17.10;;;7.30;;
67902;SDS011;54708;43.612;1.568;2023-02-14T10:12:32;6.55;;;5.80;;
67902;SDS011;54708;43.612;1.568;2023-02-14T10:15:02;10.57;;;6.80;;
67902;SDS011;54708;43.612;1.568;2023-02-14T10:17:36;8.98;;;6.75;;
67902;SDS011;54708;43.612;1.568;2023-02-14T10:20:19;16.67;;;8.27;;
67902;SDS011;54708;43.612;1.568;2023-02-14T10:25:48;8.88;;;6.85;;
67902;SDS011;54708;43.612;1.568;2023-02-14T10:28:20;16.60;;;7.18;;
67902;SDS011;54708;43.612;1.568;2023-02-14T10:31:04;8.70;;;7.07;;
67902;SDS011;54708;43.612;1.568;2023-02-14T10:33:39;13.70;;;8.23;;
67902;SDS011;54708;43.612;1.568;2023-02-14T10:36:15;10.25;;;7.07;;
67902;SDS011;54708;43.612;1.568;2023-02-14T10:45:00;7.95;;;6.55;;
67902;SDS011;54708;43.612;1.568;2023-02-14T10:47:49;15.10;;;8.30;;
67902;SDS011;54708;43.612;1.568;2023-02-14T10:53:27;7.78;;;6.65;;
67902;SDS011;54708;43.612;1.568;2023-02-14T10:56:01;8.95;;;6.38;;
67902;SDS011;54708;43.612;1.568;2023-02-14T10:58:31;9.85;;;6.72;;
67902;SDS011;54708;43.612;1.568;2023-02-14T11:00:59;13.45;;;7.07;;
67902;SDS011;54708;43.612;1.568;2023-02-14T11:03:28;12.70;;;7.40;;
67902;SDS011;54708;43.612;1.568;2023-02-14T11:05:54;10.57;;;6.60;;
67902;SDS011;54708;43.612;1.568;2023-02-14T11:10:48;10.15;;;6.18;;
67902;SDS011;54708;43.612;1.568;2023-02-14T11:13:33;8.05;;;6.40;;
67902;SDS011;54708;43.612;1.568;2023-02-14T11:16:01;8.80;;;6.28;;
67902;SDS011;54708;43.612;1.568;2023-02-14T11:18:37;12.88;;;6.82;;
67902;SDS011;54708;43.612;1.568;2023-02-14T11:21:08;15.75;;;7.63;;
67902;SDS011;54708;43.612;1.568;2023-02-14T11:23:36;8.63;;;7.10;;
67902;SDS011;54708;43.612;1.568;2023-02-14T11:26:06;8.07;;;6.60;;
67902;SDS011;54708;43.612;1.568;2023-02-14T11:28:34;10.07;;;7.07;;
67902;SDS011;54708;43.612;1.568;2023-02-14T11:31:00;9.75;;;7.30;;
67902;SDS011;54708;43.612;1.568;2023-02-14T11:33:39;13.38;;;7.30;;
67902;SDS011;54708;43.612;1.568;2023-02-14T11:36:10;9.50;;;6.57;;
67902;SDS011;54708;43.612;1.568;2023-02-14T11:38:38;7.28;;;6.57;;
67902;SDS011;54708;43.612;1.568;2023-02-14T11:41:05;7.15;;;6.40;;
67902;SDS011;54708;43.612;1.568;2023-02-14T11:43:34;9.75;;;6.63;;
67902;SDS011;54708;43.612;1.568;2023-02-14T11:46:11;10.98;;;6.63;;
67902;SDS011;54708;43.612;1.568;2023-02-14T11:49:02;7.43;;;6.63;;
67902;SDS011;54708;43.612;1.568;2023-02-14T11:51:35;8.65;;;7.43;;
67902;SDS011;54708;43.612;1.568;2023-02-14T11:54:04;7.88;;;6.50;;
67902;SDS011;54708;43.612;1.568;2023-02-14T12:05:05;10.43;;;6.95;;
67902;SDS011;54708;43.612;1.568;2023-02-14T12:07:54;11.13;;;6.90;;
67902;SDS011;54708;43.612;1.568;2023-02-14T12:10:28;6.38;;;5.45;;
67902;SDS011;54708;43.612;1.568;2023-02-14T12:15:48;7.18;;;6.07;;
67902;SDS011;54708;43.612;1.568;2023-02-14T12:29:27;9.55;;;6.82;;
67902;SDS011;54708;43.612;1.568;2023-02-14T12:32:00;23.33;;;7.85;;
67902;SDS011;54708;43.612;1.568;2023-02-14T12:34:40;5.97;;;5.35;;
67902;SDS011;54708;43.612;1.568;2023-02-14T12:37:08;7.78;;;6.18;;
67902;SDS011;54708;43.612;1.568;2023-02-14T12:50:50;10.13;;;6.05;;
67902;SDS011;54708;43.612;1.568;2023-02-14T12:56:10;6.25;;;5.10;;
67902;SDS011;54708;43.612;1.568;2023-02-14T13:11:38;9.57;;;5.47;;
67902;SDS011;54708;43.612;1.568;2023-02-14T13:14:51;8.43;;;5.28;;
67902;SDS011;54708;43.612;1.568;2023-02-14T13:17:45;8.20;;;5.32;;
67902;SDS011;54708;43.612;1.568;2023-02-14T13:26:05;9.63;;;5.82;;
67902;SDS011;54708;43.612;1.568;2023-02-14T13:28:35;7.93;;;5.78;;
67902;SDS011;54708;43.612;1.568;2023-02-14T13:31:01;8.70;;;5.70;;
67902;SDS011;54708;43.612;1.568;2023-02-14T13:33:29;7.45;;;5.90;;
67902;SDS011;54708;43.612;1.568;2023-02-14T13:35:58;6.38;;;5.78;;
67902;SDS011;54708;43.612;1.568;2023-02-14T13:38:25;7.28;;;5.28;;
67902;SDS011;54708;43.612;1.568;2023-02-14T13:40:52;7.57;;;5.72;;
67902;SDS011;54708;43.612;1.568;2023-02-14T13:46:09;9.23;;;5.43;;
67902;SDS011;54708;43.612;1.568;2023-02-14T13:48:34;8.23;;;6.75;;
67902;SDS011;54708;43.612;1.568;2023-02-14T13:51:09;7.95;;;6.38;;
67902;SDS011;54708;43.612;1.568;2023-02-14T13:53:41;8.50;;;5.43;;
67902;SDS011;54708;43.612;1.568;2023-02-14T14:01:29;9.38;;;5.40;;
67902;SDS011;54708;43.612;1.568;2023-02-14T14:04:02;8.73;;;5.40;;
67902;SDS011;54708;43.612;1.568;2023-02-14T14:20:49;8.10;;;5.43;;
67902;SDS011;54708;43.612;1.568;2023-02-14T14:22:59;9.68;;;5.57;;
67902;SDS011;54708;43.612;1.568;2023-02-14T14:25:43;7.15;;;5.03;;
67902;SDS011;54708;43.612;1.568;2023-02-14T14:28:09;11.30;;;5.22;;
67902;SDS011;54708;43.612;1.568;2023-02-14T14:30:41;7.32;;;5.45;;
67902;SDS011;54708;43.612;1.568;2023-02-14T14:33:11;7.30;;;5.57;;
67902;SDS011;54708;43.612;1.568;2023-02-14T14:35:56;6.32;;;4.43;;
67902;SDS011;54708;43.612;1.568;2023-02-14T14:38:26;7.65;;;4.47;;
67902;SDS011;54708;43.612;1.568;2023-02-14T14:40:52;5.78;;;4.63;;
67902;SDS011;54708;43.612;1.568;2023-02-14T14:43:25;7.57;;;5.10;;
67902;SDS011;54708;43.612;1.568;2023-02-14T14:45:51;5.25;;;4.57;;
67902;SDS011;54708;43.612;1.568;2023-02-14T14:48:27;7.95;;;5.38;;
67902;SDS011;54708;43.612;1.568;2023-02-14T14:50:56;6.55;;;5.22;;
67902;SDS011;54708;43.612;1.568;2023-02-14T14:56:12;7.13;;;4.90;;
67902;SDS011;54708;43.612;1.568;2023-02-14T14:58:42;6.22;;;4.43;;
67902;SDS011;54708;43.612;1.568;2023-02-14T15:01:10;6.80;;;4.78;;
67902;SDS011;54708;43.612;1.568;2023-02-14T15:03:39;7.65;;;4.50;;
67902;SDS011;54708;43.612;1.568;2023-02-14T15:06:16;9.80;;;5.22;;
67902;SDS011;54708;43.612;1.568;2023-02-14T15:08:44;7.55;;;4.57;;
67902;SDS011;54708;43.612;1.568;2023-02-14T15:11:11;6.20;;;5.07;;
67902;SDS011;54708;43.612;1.568;2023-02-14T15:13:58;9.20;;;4.88;;
67902;SDS011;54708;43.612;1.568;2023-02-14T15:17:24;6.43;;;5.10;;
67902;SDS011;54708;43.612;1.568;2023-02-14T15:19:38;8.10;;;5.18;;
67902;SDS011;54708;43.612;1.568;2023-02-14T15:22:20;7.93;;;4.57;;
67902;SDS011;54708;43.612;1.568;2023-02-14T15:24:49;9.93;;;4.75;;
67902;SDS011;54708;43.612;1.568;2023-02-14T15:27:17;8.32;;;4.20;;
67902;SDS011;54708;43.612;1.568;2023-02-14T15:32:20;7.95;;;4.65;;
67902;SDS011;54708;43.612;1.568;2023-02-14T15:34:45;6.47;;;4.43;;
67902;SDS011;54708;43.612;1.568;2023-02-14T15:37:12;4.22;;;3.85;;
67902;SDS011;54708;43.612;1.568;2023-02-14T15:39:48;6.32;;;4.32;;
67902;SDS011;54708;43.612;1.568;2023-02-14T15:42:26;6.40;;;4.50;;
67902;SDS011;54708;43.612;1.568;2023-02-14T15:51:13;7.55;;;4.72;;
67902;SDS011;54708;43.612;1.568;2023-02-14T15:55:50;9.73;;;4.03;;
67902;SDS011;54708;43.612;1.568;2023-02-14T15:58:20;5.63;;;3.75;;
67902;SDS011;54708;43.612;1.568;2023-02-14T16:00:48;4.05;;;3.60;;
67902;SDS011;54708;43.612;1.568;2023-02-14T16:03:33;4.82;;;4.00;;
67902;SDS011;54708;43.612;1.568;2023-02-14T16:06:01;7.68;;;3.97;;
67902;SDS011;54708;43.612;1.568;2023-02-14T16:08:34;5.75;;;3.90;;
67902;SDS011;54708;43.612;1.568;2023-02-14T16:11:04;7.15;;;4.97;;
67902;SDS011;54708;43.612;1.568;2023-02-14T16:13:40;8.98;;;4.45;;
67902;SDS011;54708;43.612;1.568;2023-02-14T16:16:08;6.82;;;4.80;;
67902;SDS011;54708;43.612;1.568;2023-02-14T16:21:15;5.38;;;3.65;;
67902;SDS011;54708;43.612;1.568;2023-02-14T16:23:44;4.40;;;4.00;;
67902;SDS011;54708;43.612;1.568;2023-02-14T16:26:11;5.60;;;4.18;;
67902;SDS011;54708;43.612;1.568;2023-02-14T16:28:36;7.65;;;4.15;;
67902;SDS011;54708;43.612;1.568;2023-02-14T16:31:02;5.35;;;4.80;;
67902;SDS011;54708;43.612;1.568;2023-02-14T16:33:38;5.87;;;4.27;;
67902;SDS011;54708;43.612;1.568;2023-02-14T16:36:05;6.80;;;4.03;;
67902;SDS011;54708;43.612;1.568;2023-02-14T16:38:40;6.18;;;4.45;;
67902;SDS011;54708;43.612;1.568;2023-02-14T16:41:27;7.47;;;4.38;;
67902;SDS011;54708;43.612;1.568;2023-02-14T16:43:54;6.30;;;4.50;;
67902;SDS011;54708;43.612;1.568;2023-02-14T16:46:21;11.77;;;4.88;;
67902;SDS011;54708;43.612;1.568;2023-02-14T16:48:49;5.60;;;3.40;;
67902;SDS011;54708;43.612;1.568;2023-02-14T16:51:16;5.88;;;4.68;;
67902;SDS011;54708;43.612;1.568;2023-02-14T16:53:46;4.32;;;3.67;;
67902;SDS011;54708;43.612;1.568;2023-02-14T16:56:57;7.30;;;4.50;;
67902;SDS011;54708;43.612;1.568;2023-02-14T16:58:57;5.70;;;4.22;;
67902;SDS011;54708;43.612;1.568;2023-02-14T17:01:23;8.15;;;4.10;;
67902;SDS011;54708;43.612;1.568;2023-02-14T17:03:48;5.70;;;4.60;;
67902;SDS011;54708;43.612;1.568;2023-02-14T17:06:15;6.80;;;4.32;;
67902;SDS011;54708;43.612;1.568;2023-02-14T17:08:43;5.07;;;3.88;;
67902;SDS011;54708;43.612;1.568;2023-02-14T17:11:10;4.55;;;3.60;;
67902;SDS011;54708;43.612;1.568;2023-02-14T17:13:36;7.07;;;4.68;;
67902;SDS011;54708;43.612;1.568;2023-02-14T17:16:03;7.07;;;4.25;;
67902;SDS011;54708;43.612;1.568;2023-02-14T17:18:30;7.13;;;3.50;;
67902;SDS011;54708;43.612;1.568;2023-02-14T17:20:57;13.82;;;5.88;;
67902;SDS011;54708;43.612;1.568;2023-02-14T17:23:23;5.35;;;4.03;;
67902;SDS011;54708;43.612;1.568;2023-02-14T17:25:49;5.68;;;4.13;;
67902;SDS011;54708;43.612;1.568;2023-02-14T17:28:14;9.43;;;4.07;;
67902;SDS011;54708;43.612;1.568;2023-02-14T17:30:39;6.15;;;4.15;;
67902;SDS011;54708;43.612;1.568;2023-02-14T17:33:05;8.95;;;4.00;;
67902;SDS011;54708;43.612;1.568;2023-02-14T17:35:32;8.85;;;4.15;;
67902;SDS011;54708;43.612;1.568;2023-02-14T17:38:01;9.55;;;4.40;;
67902;SDS011;54708;43.612;1.568;2023-02-14T17:40:27;6.82;;;4.10;;
67902;SDS011;54708;43.612;1.568;2023-02-14T17:42:53;4.70;;;4.05;;
67902;SDS011;54708;43.612;1.568;2023-02-14T17:45:18;8.60;;;4.30;;
67902;SDS011;54708;43.612;1.568;2023-02-14T17:47:44;4.38;;;3.97;;